createdAt,value
2022-10-09T00:00:25.693Z,72.68
2022-10-09T00:02:52.551Z,72.67
2022-10-09T00:05:19.442Z,72.75
2022-10-09T00:07:46.312Z,72.69
2022-10-09T00:10:12.986Z,72.63
2022-10-09T00:12:39.702Z,72.66
2022-10-09T00:15:06.750Z,72.83
2022-10-09T00:17:33.416Z,72.64
2022-10-09T00:20:00.119Z,72.89
2022-10-09T00:22:26.813Z,72.91
2022-10-09T00:24:53.587Z,72.89
2022-10-09T00:27:24.662Z,72.90
2022-10-09T00:29:51.848Z,72.83
2022-10-09T00:32:18.807Z,72.61
2022-10-09T00:34:45.456Z,72.84
2022-10-09T00:37:12.354Z,72.45
2022-10-09T00:39:39.188Z,72.38
2022-10-09T00:42:06.091Z,72.26
2022-10-09T00:44:57.308Z,72.06
2022-10-09T00:47:29.586Z,72.09
2022-10-09T00:50:05.304Z,71.95
2022-10-09T00:52:32.284Z,71.92
2022-10-09T00:55:00.353Z,72.17
2022-10-09T00:57:27.075Z,72.04
2022-10-09T00:59:53.818Z,72.20
2022-10-09T01:02:20.596Z,72.39
2022-10-09T01:04:47.330Z,72.60
2022-10-09T01:07:35.837Z,72.45
2022-10-09T01:10:09.935Z,72.33
2022-10-09T01:12:36.559Z,72.41
2022-10-09T01:15:08.105Z,72.59
2022-10-09T01:18:02.342Z,72.83
2022-10-09T01:20:29.032Z,72.69
2022-10-09T01:23:17.439Z,72.60
2022-10-09T01:25:52.160Z,72.81
2022-10-09T01:28:19.726Z,72.76
2022-10-09T01:30:46.960Z,72.86
2022-10-09T01:33:14.451Z,72.65
2022-10-09T01:35:41.976Z,72.66
2022-10-09T01:38:08.864Z,72.50
2022-10-09T01:40:36.381Z,72.18
2022-10-09T01:43:03.116Z,72.15
2022-10-09T01:45:38.899Z,72.17
2022-10-09T01:48:06.600Z,72.15
2022-10-09T01:50:35.096Z,72.29
2022-10-09T01:53:04.848Z,72.29
2022-10-09T01:55:53.725Z,72.25
2022-10-09T01:58:29.556Z,72.16
2022-10-09T02:01:12.561Z,72.14
2022-10-09T02:03:40.724Z,72.32
2022-10-09T02:06:09.415Z,72.25
2022-10-09T02:08:37.277Z,72.16
2022-10-09T02:11:04.166Z,72.30
2022-10-09T02:13:35.036Z,72.02
2022-10-09T02:16:11.866Z,72.05
2022-10-09T02:18:42.169Z,72.02
2022-10-09T02:21:27.472Z,72.02
2022-10-09T02:23:55.178Z,71.98
2022-10-09T02:26:21.939Z,71.77
2022-10-09T02:28:48.799Z,71.78
2022-10-09T02:31:30.031Z,71.84
2022-10-09T02:34:01.005Z,71.68
2022-10-09T02:36:28.602Z,71.90
2022-10-09T02:38:56.025Z,71.63
2022-10-09T02:41:23.624Z,71.69
2022-10-09T02:43:50.573Z,71.75
2022-10-09T02:46:17.613Z,72.02
2022-10-09T02:48:44.623Z,72.05
2022-10-09T02:51:11.744Z,72.01
2022-10-09T02:53:38.424Z,72.27
2022-10-09T02:56:05.373Z,72.17
2022-10-09T02:58:33.817Z,72.26
2022-10-09T03:01:00.965Z,72.24
2022-10-09T03:03:27.646Z,72.33
2022-10-09T03:06:06.051Z,72.61
2022-10-09T03:08:32.884Z,72.64
2022-10-09T03:10:59.572Z,72.56
2022-10-09T03:13:26.338Z,72.65
2022-10-09T03:15:53.199Z,72.87
2022-10-09T03:18:19.968Z,72.57
2022-10-09T03:20:46.839Z,72.58
2022-10-09T03:23:13.569Z,72.35
2022-10-09T03:25:40.278Z,72.27
2022-10-09T03:28:07.045Z,72.15
2022-10-09T03:30:33.783Z,72.29
2022-10-09T03:33:00.509Z,72.00
2022-10-09T03:35:27.205Z,71.83
2022-10-09T03:37:53.902Z,71.79
2022-10-09T03:40:20.650Z,71.86
2022-10-09T03:42:47.581Z,71.98
2022-10-09T03:45:14.472Z,71.55
2022-10-09T03:47:41.189Z,71.77
2022-10-09T03:50:08.298Z,71.75
2022-10-09T03:52:36.420Z,71.42
2022-10-09T03:55:03.920Z,71.68
2022-10-09T03:57:30.555Z,71.67
2022-10-09T04:00:00.231Z,71.46
2022-10-09T04:02:26.933Z,71.42
2022-10-09T04:04:53.734Z,71.27
2022-10-09T04:07:20.443Z,71.53
2022-10-09T04:09:47.150Z,71.44
2022-10-09T04:12:13.868Z,71.27
2022-10-09T04:14:40.569Z,71.31
2022-10-09T04:17:07.597Z,71.36
2022-10-09T04:19:34.383Z,71.49
2022-10-09T04:22:01.612Z,71.42
2022-10-09T04:24:28.355Z,71.51
2022-10-09T04:26:55.113Z,71.41
2022-10-09T04:29:21.781Z,71.32
2022-10-09T04:31:48.794Z,71.46
2022-10-09T04:34:15.767Z,71.35
2022-10-09T04:36:42.469Z,71.34
2022-10-09T04:39:09.181Z,71.24
2022-10-09T04:41:38.236Z,71.21
2022-10-09T04:44:05.358Z,71.08
2022-10-09T04:46:32.060Z,70.93
2022-10-09T04:48:58.768Z,71.12
2022-10-09T04:51:25.444Z,71.13
2022-10-09T04:53:52.144Z,70.99
2022-10-09T04:56:20.463Z,70.91
2022-10-09T04:58:47.823Z,70.78
2022-10-09T05:01:21.339Z,70.90
2022-10-09T05:03:54.432Z,70.81
2022-10-09T05:06:22.245Z,70.87
2022-10-09T05:08:49.382Z,70.70
2022-10-09T05:11:18.324Z,70.78
2022-10-09T05:13:48.364Z,70.75
2022-10-09T05:16:17.383Z,70.74
2022-10-09T05:18:45.781Z,70.76
2022-10-09T05:21:12.607Z,70.85
2022-10-09T05:23:39.388Z,70.61
2022-10-09T05:26:08.968Z,70.73
2022-10-09T05:28:36.019Z,70.76
2022-10-09T05:31:04.401Z,70.62
2022-10-09T05:33:31.222Z,70.69
2022-10-09T05:36:00.534Z,70.73
2022-10-09T05:38:27.824Z,70.85
2022-10-09T05:40:56.733Z,70.68
2022-10-09T05:43:25.100Z,70.75
2022-10-09T05:45:51.944Z,70.75
2022-10-09T05:48:19.190Z,70.60
2022-10-09T05:50:46.095Z,70.66
2022-10-09T05:53:13.088Z,70.65
2022-10-09T05:55:40.166Z,71.02
2022-10-09T05:58:06.871Z,71.01
2022-10-09T06:00:33.751Z,70.98
2022-10-09T06:03:00.427Z,70.96
2022-10-09T06:05:27.208Z,71.25
2022-10-09T06:07:53.937Z,71.34
2022-10-09T06:10:20.778Z,71.37
2022-10-09T06:12:47.732Z,71.54
2022-10-09T06:15:14.790Z,71.60
2022-10-09T06:17:41.457Z,71.86
2022-10-09T06:20:08.560Z,71.98
2022-10-09T06:22:35.309Z,72.14
2022-10-09T06:25:02.048Z,72.04
2022-10-09T06:27:28.867Z,72.12
2022-10-09T06:29:56.163Z,72.13
2022-10-09T06:32:22.982Z,72.41
2022-10-09T06:34:49.676Z,72.55
2022-10-09T06:37:16.979Z,72.72
2022-10-09T06:39:43.614Z,72.82
2022-10-09T06:42:10.278Z,73.15
2022-10-09T06:44:50.379Z,73.39
2022-10-09T06:47:17.118Z,73.54
2022-10-09T06:49:43.770Z,73.61
2022-10-09T06:52:10.490Z,73.75
2022-10-09T06:54:38.355Z,74.12
2022-10-09T06:57:05.258Z,74.40
2022-10-09T06:59:32.053Z,74.59
2022-10-09T07:01:58.900Z,74.52
2022-10-09T07:04:25.781Z,75.50
2022-10-09T07:06:52.540Z,75.68
2022-10-09T07:09:19.240Z,75.93
2022-10-09T07:11:49.272Z,75.94
2022-10-09T07:14:17.141Z,76.72
2022-10-09T07:16:46.830Z,76.77
2022-10-09T07:19:14.494Z,77.40
2022-10-09T07:21:46.955Z,77.45
2022-10-09T07:24:14.270Z,77.82
2022-10-09T07:26:44.009Z,77.73
2022-10-09T07:29:13.773Z,77.91
2022-10-09T07:31:40.599Z,78.10
2022-10-09T07:34:07.311Z,78.18
2022-10-09T07:36:34.085Z,78.70
2022-10-09T07:39:00.986Z,78.27
2022-10-09T07:41:29.157Z,78.53
2022-10-09T07:43:56.197Z,78.34
2022-10-09T07:46:24.077Z,77.94
2022-10-09T07:48:51.343Z,77.85
2022-10-09T07:51:19.297Z,77.75
2022-10-09T07:53:47.164Z,77.80
2022-10-09T07:56:18.794Z,77.91
2022-10-09T07:58:52.930Z,77.88
2022-10-09T08:01:20.789Z,77.68
2022-10-09T08:03:47.737Z,77.63
2022-10-09T08:06:14.808Z,77.79
2022-10-09T08:08:42.969Z,77.99
2022-10-09T08:11:11.303Z,77.97
2022-10-09T08:13:38.534Z,78.10
2022-10-09T08:16:06.066Z,78.10
2022-10-09T08:18:32.941Z,77.71
2022-10-09T08:21:05.423Z,76.82
2022-10-09T08:23:32.254Z,76.45
2022-10-09T08:25:58.988Z,74.45
2022-10-09T08:28:26.090Z,73.07
2022-10-09T08:30:53.193Z,71.94
2022-10-09T08:33:22.165Z,67.98
2022-10-09T08:35:53.325Z,67.72
2022-10-09T08:38:44.893Z,66.93
2022-10-09T08:41:42.281Z,65.62
2022-10-09T08:44:27.726Z,64.80
2022-10-09T08:47:08.674Z,62.90
2022-10-09T08:50:09.099Z,61.24
2022-10-09T08:52:56.306Z,60.68
2022-10-09T08:55:27.631Z,59.38
2022-10-09T08:57:56.197Z,59.27
2022-10-09T09:00:27.160Z,58.05
2022-10-09T09:03:34.257Z,57.14
2022-10-09T09:06:07.196Z,55.39
2022-10-09T09:08:58.910Z,55.74
2022-10-09T09:11:53.845Z,54.83
2022-10-09T09:14:59.634Z,53.34
2022-10-09T09:17:54.555Z,52.96
2022-10-09T09:20:25.940Z,54.48
2022-10-09T09:22:52.933Z,52.82
2022-10-09T09:25:23.040Z,51.83
2022-10-09T09:27:50.391Z,52.21
2022-10-09T09:30:36.365Z,52.71
2022-10-09T09:33:36.661Z,50.67
2022-10-09T09:36:15.923Z,50.54
2022-10-09T09:39:03.186Z,48.67
2022-10-09T09:41:29.616Z,49.11
2022-10-09T09:43:56.398Z,49.30
2022-10-09T09:46:29.683Z,48.66
2022-10-09T09:48:56.589Z,48.98
2022-10-09T09:51:30.292Z,49.30
2022-10-09T09:54:04.207Z,49.44
2022-10-09T09:57:06.735Z,48.84
2022-10-09T09:59:30.284Z,48.03
2022-10-09T10:02:12.041Z,48.70
2022-10-09T10:04:43.178Z,48.07
2022-10-09T10:07:10.035Z,45.60
2022-10-09T10:09:36.808Z,45.29
2022-10-09T10:12:04.333Z,47.83
2022-10-09T10:14:31.875Z,48.28
2022-10-09T10:17:00.477Z,46.96
2022-10-09T10:19:30.059Z,46.98
2022-10-09T10:21:57.888Z,45.27
2022-10-09T10:24:44.997Z,44.54
2022-10-09T10:27:34.620Z,44.44
2022-10-09T10:30:03.670Z,45.05
2022-10-09T10:32:43.865Z,43.60
2022-10-09T10:35:36.236Z,44.60
2022-10-09T10:38:09.508Z,45.02
2022-10-09T10:40:38.477Z,44.04
2022-10-09T10:43:16.143Z,42.09
2022-10-09T10:45:42.828Z,42.23
2022-10-09T10:48:16.332Z,41.57
2022-10-09T10:50:54.765Z,42.24
2022-10-09T10:53:49.191Z,40.55
2022-10-09T10:56:36.226Z,40.96
2022-10-09T10:59:38.305Z,41.50
2022-10-09T11:02:14.894Z,40.80
2022-10-09T11:04:44.560Z,41.47
2022-10-09T11:07:23.278Z,40.96
2022-10-09T11:10:02.646Z,39.99
2022-10-09T11:13:00.079Z,41.01
2022-10-09T11:15:37.948Z,43.03
2022-10-09T11:18:28.040Z,42.71
2022-10-09T11:21:07.332Z,43.25
2022-10-09T11:23:47.224Z,42.80
2022-10-09T11:26:22.976Z,43.74
2022-10-09T11:28:53.862Z,40.46
2022-10-09T11:31:28.673Z,40.50
2022-10-09T11:34:00.275Z,43.50
2022-10-09T11:36:33.356Z,45.63
2022-10-09T11:39:22.509Z,43.81
2022-10-09T11:41:51.164Z,43.30
2022-10-09T11:44:45.429Z,43.83
2022-10-09T11:47:17.542Z,43.51
2022-10-09T11:50:03.024Z,45.25
2022-10-09T11:52:50.409Z,42.41
2022-10-09T11:55:29.430Z,42.15
2022-10-09T11:58:09.767Z,44.19
2022-10-09T12:00:36.995Z,43.52
2022-10-09T12:03:06.736Z,44.67
2022-10-09T12:05:36.364Z,44.31
2022-10-09T12:08:16.820Z,44.81
2022-10-09T12:10:57.848Z,45.64
2022-10-09T12:13:36.746Z,45.91
2022-10-09T12:16:03.877Z,45.71
2022-10-09T12:18:33.672Z,45.70
2022-10-09T12:21:03.641Z,43.69
2022-10-09T12:23:33.368Z,43.97
2022-10-09T12:26:00.818Z,44.23
2022-10-09T12:28:36.989Z,44.73
2022-10-09T12:31:07.391Z,45.08
2022-10-09T12:33:37.433Z,45.84
2022-10-09T12:36:10.355Z,46.63
2022-10-09T12:38:37.159Z,47.30
2022-10-09T12:41:07.705Z,47.00
2022-10-09T12:43:34.825Z,46.63
2022-10-09T12:46:01.646Z,46.23
2022-10-09T12:48:30.198Z,47.02
2022-10-09T12:50:57.090Z,47.30
2022-10-09T12:53:26.466Z,47.78
2022-10-09T12:55:56.172Z,47.34
2022-10-09T12:58:25.094Z,46.88
2022-10-09T13:00:57.524Z,46.51
2022-10-09T13:03:38.747Z,46.27
2022-10-09T13:06:07.957Z,45.39
2022-10-09T13:08:36.642Z,46.17
2022-10-09T13:11:16.508Z,46.15
2022-10-09T13:13:43.574Z,45.79
2022-10-09T13:16:10.849Z,46.70
2022-10-09T13:18:38.290Z,47.33
2022-10-09T13:21:29.129Z,47.09
2022-10-09T13:24:08.928Z,46.31
2022-10-09T13:26:35.786Z,46.38
2022-10-09T13:29:03.831Z,46.09
2022-10-09T13:31:30.552Z,46.01
2022-10-09T13:33:57.233Z,44.55
2022-10-09T13:36:23.976Z,44.49
2022-10-09T13:38:50.691Z,44.05
2022-10-09T13:41:21.462Z,43.43
2022-10-09T13:43:48.667Z,43.34
2022-10-09T13:46:16.599Z,43.64
2022-10-09T13:48:43.416Z,43.21
2022-10-09T13:51:11.185Z,43.35
2022-10-09T13:53:38.155Z,43.71
2022-10-09T13:56:05.475Z,44.87
2022-10-09T13:58:32.191Z,44.88
2022-10-09T14:00:59.189Z,45.40
2022-10-09T14:03:26.042Z,45.25
2022-10-09T14:06:01.243Z,44.42
2022-10-09T14:08:28.095Z,44.03
2022-10-09T14:10:54.977Z,44.77
2022-10-09T14:13:21.951Z,44.54
2022-10-09T14:15:49.169Z,44.36
2022-10-09T14:18:15.836Z,45.03
2022-10-09T14:20:42.644Z,45.02
2022-10-09T14:23:09.527Z,46.00
2022-10-09T14:25:36.308Z,45.77
2022-10-09T14:28:03.673Z,44.65
2022-10-09T14:30:30.437Z,45.20
2022-10-09T14:32:57.610Z,45.19
2022-10-09T14:35:24.656Z,45.69
2022-10-09T14:37:51.384Z,46.83
2022-10-09T14:40:18.137Z,46.04
2022-10-09T14:42:45.101Z,45.35
2022-10-09T14:45:11.962Z,44.52
2022-10-09T14:47:38.729Z,44.77
2022-10-09T14:50:05.728Z,44.64
2022-10-09T14:52:32.429Z,45.28
2022-10-09T14:54:59.426Z,45.92
2022-10-09T14:57:26.698Z,47.45
2022-10-09T14:59:55.180Z,47.45
2022-10-09T15:02:22.003Z,46.54
2022-10-09T15:04:48.655Z,46.73
2022-10-09T15:07:15.430Z,47.76
2022-10-09T15:09:42.168Z,47.57
2022-10-09T15:12:08.848Z,46.69
2022-10-09T15:14:35.550Z,46.64
2022-10-09T15:17:02.952Z,47.15
2022-10-09T15:19:29.642Z,47.46
2022-10-09T15:21:56.306Z,47.48
2022-10-09T15:24:23.015Z,48.65
2022-10-09T15:26:49.668Z,50.97
2022-10-09T15:29:16.681Z,51.29
2022-10-09T15:31:43.342Z,52.11
2022-10-09T15:34:16.323Z,50.61
2022-10-09T15:36:44.538Z,49.53
2022-10-09T15:39:11.725Z,50.58
2022-10-09T15:41:40.577Z,51.72
2022-10-09T15:44:14.837Z,52.73
2022-10-09T15:46:41.638Z,52.65
2022-10-09T15:49:08.382Z,53.02
2022-10-09T15:51:35.219Z,53.65
2022-10-09T15:54:02.338Z,53.89
2022-10-09T15:56:29.915Z,54.35
2022-10-09T15:58:58.229Z,53.96
2022-10-09T16:01:25.618Z,54.28
2022-10-09T16:03:52.603Z,55.11
2022-10-09T16:06:21.548Z,55.42
2022-10-09T16:08:48.842Z,55.72
2022-10-09T16:11:20.303Z,56.13
2022-10-09T16:13:50.250Z,56.51
2022-10-09T16:16:20.000Z,56.28
2022-10-09T16:18:47.295Z,56.73
2022-10-09T16:21:16.652Z,56.79
2022-10-09T16:23:44.565Z,57.22
2022-10-09T16:26:13.865Z,57.12
2022-10-09T16:28:40.677Z,57.40
2022-10-09T16:31:07.501Z,57.78
2022-10-09T16:33:34.345Z,57.68
2022-10-09T16:36:08.797Z,58.15
2022-10-09T16:38:35.731Z,58.52
2022-10-09T16:41:02.826Z,58.58
2022-10-09T16:43:33.295Z,59.06
2022-10-09T16:46:17.483Z,59.37
2022-10-09T16:48:44.493Z,59.44
2022-10-09T16:51:14.301Z,59.59
2022-10-09T16:53:41.815Z,59.81
2022-10-09T16:56:13.638Z,60.00
2022-10-09T16:58:41.659Z,60.17
2022-10-09T17:01:10.354Z,60.50
2022-10-09T17:03:40.648Z,60.26
2022-10-09T17:06:12.289Z,60.14
2022-10-09T17:08:39.397Z,60.38
2022-10-09T17:11:10.751Z,60.56
2022-10-09T17:13:38.020Z,60.99
2022-10-09T17:16:13.284Z,61.20
2022-10-09T17:18:44.240Z,61.27
2022-10-09T17:21:12.455Z,61.61
2022-10-09T17:23:39.576Z,61.69
2022-10-09T17:26:11.997Z,61.68
2022-10-09T17:28:39.353Z,61.64
2022-10-09T17:31:08.510Z,62.03
2022-10-09T17:33:41.369Z,61.89
2022-10-09T17:36:09.517Z,62.19
2022-10-09T17:38:36.391Z,62.42
2022-10-09T17:41:04.609Z,62.44
2022-10-09T17:43:31.436Z,62.77
2022-10-09T17:45:58.207Z,62.97
2022-10-09T17:48:25.103Z,62.99
2022-10-09T17:50:56.745Z,63.04
2022-10-09T17:53:23.845Z,63.27
2022-10-09T17:55:52.790Z,63.14
2022-10-09T17:58:23.145Z,63.46
2022-10-09T18:00:50.721Z,63.61
2022-10-09T18:03:18.039Z,63.54
2022-10-09T18:05:47.094Z,63.62
2022-10-09T18:08:15.275Z,63.71
2022-10-09T18:10:42.391Z,63.89
2022-10-09T18:13:10.193Z,63.86
2022-10-09T18:15:41.767Z,63.97
2022-10-09T18:18:09.468Z,64.08
2022-10-09T18:20:40.110Z,64.26
2022-10-09T18:23:08.218Z,64.22
2022-10-09T18:25:36.788Z,64.37
2022-10-09T18:28:03.701Z,64.76
2022-10-09T18:30:30.630Z,64.63
2022-10-09T18:32:57.551Z,64.72
2022-10-09T18:35:25.697Z,64.71
2022-10-09T18:37:52.873Z,64.77
2022-10-09T18:40:19.820Z,64.82
2022-10-09T18:42:46.842Z,64.89
2022-10-09T18:45:14.718Z,65.24
2022-10-09T18:47:41.859Z,65.11
2022-10-09T18:50:11.150Z,65.37
2022-10-09T18:52:38.085Z,65.24
2022-10-09T18:55:06.934Z,65.49
2022-10-09T18:57:34.417Z,65.66
2022-10-09T19:00:02.139Z,65.62
2022-10-09T19:02:28.956Z,65.60
2022-10-09T19:04:55.752Z,65.76
2022-10-09T19:07:22.579Z,65.66
2022-10-09T19:09:53.537Z,65.81
2022-10-09T19:12:21.746Z,66.14
2022-10-09T19:14:48.655Z,66.09
2022-10-09T19:17:15.450Z,66.06
2022-10-09T19:19:42.245Z,65.99
2022-10-09T19:22:14.120Z,66.07
2022-10-09T19:24:42.985Z,66.20
2022-10-09T19:27:10.185Z,66.04
2022-10-09T19:29:36.990Z,66.03
2022-10-09T19:32:04.229Z,66.13
2022-10-09T19:34:31.376Z,66.26
2022-10-09T19:36:58.525Z,66.48
2022-10-09T19:39:25.426Z,66.30
2022-10-09T19:41:52.523Z,66.19
2022-10-09T19:44:19.573Z,66.30
2022-10-09T19:46:47.011Z,66.45
2022-10-09T19:49:13.987Z,66.75
2022-10-09T19:51:40.873Z,66.61
2022-10-09T19:54:08.943Z,66.74
2022-10-09T19:56:36.335Z,66.58
2022-10-09T19:59:05.776Z,66.88
2022-10-09T20:01:35.563Z,66.94
2022-10-09T20:04:05.067Z,67.16
2022-10-09T20:06:31.824Z,67.27
2022-10-09T20:08:58.700Z,67.27
2022-10-09T20:11:26.387Z,67.07
2022-10-09T20:13:55.969Z,67.33
2022-10-09T20:16:24.570Z,67.10
2022-10-09T20:18:54.346Z,67.15
2022-10-09T20:21:21.145Z,67.41
2022-10-09T20:23:47.919Z,67.30
2022-10-09T20:26:18.116Z,67.56
2022-10-09T20:28:45.563Z,67.40
2022-10-09T20:31:16.477Z,67.59
2022-10-09T20:33:43.512Z,67.51
2022-10-09T20:36:35.471Z,67.46
2022-10-09T20:39:05.060Z,67.50
2022-10-09T20:41:31.933Z,67.54
2022-10-09T20:44:00.849Z,67.64
2022-10-09T20:46:30.111Z,67.45
2022-10-09T20:48:56.974Z,67.52
2022-10-09T20:51:24.098Z,67.75
2022-10-09T20:53:52.646Z,68.04
2022-10-09T20:56:19.552Z,67.97
2022-10-09T20:58:46.510Z,67.79
2022-10-09T21:01:15.477Z,67.93
2022-10-09T21:03:42.284Z,67.78
2022-10-09T21:06:11.556Z,67.86
2022-10-09T21:08:38.265Z,67.89
2022-10-09T21:11:07.509Z,67.79
2022-10-09T21:13:34.623Z,68.03
2022-10-09T21:16:05.192Z,67.98
2022-10-09T21:18:32.272Z,68.06
2022-10-09T21:21:04.280Z,68.09
2022-10-09T21:23:31.195Z,67.99
2022-10-09T21:25:57.962Z,67.77
2022-10-09T21:28:25.287Z,67.72
2022-10-09T21:30:52.047Z,67.71
2022-10-09T21:33:19.108Z,67.85
2022-10-09T21:35:48.512Z,67.94
2022-10-09T21:38:17.578Z,67.66
2022-10-09T21:40:44.799Z,67.68
2022-10-09T21:43:11.727Z,67.77
2022-10-09T21:45:39.177Z,67.54
2022-10-09T21:48:06.309Z,67.57
2022-10-09T21:50:33.373Z,67.50
2022-10-09T21:53:00.891Z,67.38
2022-10-09T21:55:27.569Z,67.31
2022-10-09T21:57:54.362Z,67.49
2022-10-09T22:00:21.261Z,67.50
2022-10-09T22:02:48.300Z,67.58
2022-10-09T22:05:15.180Z,67.48
2022-10-09T22:07:41.847Z,67.56
2022-10-09T22:10:08.998Z,67.64
2022-10-09T22:12:35.678Z,67.85
2022-10-09T22:15:02.613Z,67.67
2022-10-09T22:17:29.290Z,67.81
2022-10-09T22:19:56.003Z,67.50
2022-10-09T22:22:24.072Z,67.94
2022-10-09T22:24:51.526Z,68.04
2022-10-09T22:27:19.028Z,67.80
2022-10-09T22:29:45.850Z,67.65
2022-10-09T22:32:12.547Z,67.94
2022-10-09T22:34:39.285Z,68.04
2022-10-09T22:37:05.997Z,68.13
2022-10-09T22:39:32.675Z,68.27
2022-10-09T22:41:59.424Z,68.05
2022-10-09T22:44:26.206Z,68.10
2022-10-09T22:46:52.909Z,68.01
2022-10-09T22:49:19.637Z,67.85
2022-10-09T22:51:46.358Z,67.87
2022-10-09T22:54:13.543Z,67.75
2022-10-09T22:56:42.271Z,67.96
2022-10-09T22:59:15.585Z,67.77
2022-10-09T23:01:48.517Z,67.88
2022-10-09T23:04:18.045Z,67.60
2022-10-09T23:06:45.525Z,67.57
2022-10-09T23:09:14.195Z,67.65
2022-10-09T23:11:41.313Z,67.44
2022-10-09T23:14:08.573Z,67.62
2022-10-09T23:16:35.232Z,68.00
2022-10-09T23:19:06.330Z,67.85
2022-10-09T23:21:34.614Z,68.12
2022-10-09T23:24:01.341Z,68.13
2022-10-09T23:26:30.062Z,68.09
2022-10-09T23:29:01.571Z,67.93
2022-10-09T23:31:28.907Z,68.13
2022-10-09T23:33:56.456Z,67.95
2022-10-09T23:36:25.160Z,67.86
2022-10-09T23:38:51.926Z,67.78
2022-10-09T23:41:21.657Z,67.80
2022-10-09T23:43:48.701Z,67.88
2022-10-09T23:46:23.623Z,67.62
2022-10-09T23:48:51.323Z,67.72
2022-10-09T23:51:19.773Z,67.16
2022-10-09T23:53:46.723Z,67.22
2022-10-09T23:56:18.164Z,67.40
2022-10-09T23:58:45.018Z,67.33
